Terminal Aerodrome Forecast
Issued by NWS

Home | Current Version | Previous Version | Text Only | Print | Product List | Glossary On
Versions: 1 2 3 4 5 6 7 8 9 10 11 12 13 14 15 16 17 18 19 20 21
000
FTUS43 KMQT 241700
TAFCMX
TAF
KCMX 241728Z 2418/2518 29008KT P6SM SKC
     FM250100 VRB04KT P6SM SCT050 OVC100
     FM251600 18007KT P6SM -SHRA BKN050=

USA.gov is the U.S. government's official web portal to all federal, state and local government web resources and services.